Time;durP1;ratioP1;P1;durP2;ratioP2;P2;SDS_P1;SDS_P2;PMS_P1;PMS_P2;Temp;Humidity;BMP_temperature;BMP_pressure;BME280_temperature;BME280_humidity;BME280_pressure;Samples;Min_cycle;Max_cycle;Signal;HPM_P1;HPM_P2
2024/01/09 00:01:51;;;;;;;1.52;1.42;;;0.40;1.00;;;;;;5043597;28;20449;-87
2024/01/09 00:04:16;;;;;;;1.58;1.48;;;0.40;1.00;;;;;;5046186;28;20032;-87
2024/01/09 00:06:42;;;;;;;1.60;1.50;;;0.30;1.00;;;;;;5047959;28;20410;-85
2024/01/09 00:09:08;;;;;;;1.60;1.50;;;0.30;1.00;;;;;;5049198;28;20123;-86
2024/01/09 00:11:33;;;;;;;1.50;1.40;;;0.20;1.00;;;;;;5042641;28;20414;-86
2024/01/09 00:13:59;;;;;;;1.60;1.50;;;0.30;1.00;;;;;;5046106;28;20110;-85
2024/01/09 00:16:25;;;;;;;1.50;1.40;;;0.20;1.00;;;;;;5047926;28;20051;-86
2024/01/09 00:18:53;;;;;;;1.50;1.40;;;0.30;1.00;;;;;;5026232;28;20138;-85
2024/01/09 00:21:22;;;;;;;1.50;1.40;;;0.20;1.00;;;;;;5045803;28;20110;-88
2024/01/09 00:23:48;;;;;;;1.50;1.40;;;0.20;1.00;;;;;;5043745;28;20053;-86
2024/01/09 00:26:14;;;;;;;1.60;1.50;;;0.20;1.00;;;;;;5062128;28;20547;-86
2024/01/09 00:28:40;;;;;;;1.60;1.50;;;0.10;1.00;;;;;;5046626;28;20041;-84
2024/01/09 00:31:06;;;;;;;1.50;1.40;;;0.10;1.00;;;;;;5045235;28;20044;-84
2024/01/09 00:33:35;;;;;;;1.50;1.40;;;0.00;1.00;;;;;;5031213;28;20048;-86
2024/01/09 00:36:03;;;;;;;1.60;1.50;;;0.10;1.00;;;;;;5028083;28;20076;-84
2024/01/09 00:38:29;;;;;;;1.55;1.45;;;0.10;1.00;;;;;;5028286;28;20040;-85
2024/01/09 00:40:54;;;;;;;1.60;1.50;;;0.00;5.50;;;;;;5048434;28;20040;-85
2024/01/09 00:43:20;;;;;;;1.67;1.58;;;0.00;79.70;;;;;;5039923;28;20044;-85
2024/01/09 00:45:46;;;;;;;1.63;1.52;;;0.00;63.10;;;;;;5062192;28;20109;-84
2024/01/09 00:48:11;;;;;;;1.60;1.50;;;0.10;77.50;;;;;;5042867;28;20128;-84
2024/01/09 00:50:37;;;;;;;1.70;1.60;;;0.10;1.00;;;;;;5042037;28;20048;-86
2024/01/09 00:53:04;;;;;;;1.70;1.60;;;0.10;47.60;;;;;;5025481;28;20548;-84
2024/01/09 00:55:30;;;;;;;1.65;1.55;;;0.10;36.60;;;;;;5030351;28;20044;-84
2024/01/09 00:57:56;;;;;;;1.58;1.48;;;0.00;48.60;;;;;;5045499;28;20051;-84
2024/01/09 01:00:22;;;;;;;1.67;1.58;;;0.00;26.90;;;;;;5042120;28;20075;-84
2024/01/09 01:02:47;;;;;;;1.83;1.73;;;0.00;90.50;;;;;;5026367;28;20048;-84
2024/01/09 01:05:15;;;;;;;1.60;1.50;;;0.00;66.60;;;;;;5042558;28;20702;-83
2024/01/09 01:07:41;;;;;;;1.60;1.50;;;0.00;19.30;;;;;;5024949;28;20056;-84
2024/01/09 01:10:07;;;;;;;1.60;1.50;;;0.00;24.30;;;;;;5020463;28;20119;-83
2024/01/09 01:12:32;;;;;;;1.70;1.60;;;0.00;8.50;;;;;;5060589;28;20127;-84
2024/01/09 01:14:58;;;;;;;1.58;1.48;;;0.10;1.00;;;;;;5041869;28;20045;-83
2024/01/09 01:17:24;;;;;;;1.60;1.50;;;0.00;1.00;;;;;;5044010;28;20040;-82
2024/01/09 01:19:49;;;;;;;1.73;1.63;;;0.00;1.00;;;;;;5043362;28;20481;-84
2024/01/09 01:22:15;;;;;;;1.58;1.48;;;0.00;1.00;;;;;;5042069;28;20401;-83
2024/01/09 01:24:41;;;;;;;1.50;1.40;;;-0.20;20.30;;;;;;5042986;28;20036;-84
2024/01/09 01:27:06;;;;;;;1.60;1.50;;;-0.30;94.10;;;;;;5027067;28;20048;-83
2024/01/09 01:29:32;;;;;;;1.60;1.50;;;-0.30;99.90;;;;;;5044745;28;20114;-83
2024/01/09 01:31:57;;;;;;;1.60;1.50;;;-0.20;99.90;;;;;;5028314;28;20044;-83
2024/01/09 01:34:23;;;;;;;1.60;1.50;;;-0.20;46.60;;;;;;5042602;28;20041;-83
2024/01/09 01:36:49;;;;;;;1.50;1.40;;;-0.30;79.10;;;;;;5043470;28;20048;-83
2024/01/09 01:39:14;;;;;;;1.60;1.50;;;-0.30;99.90;;;;;;5023940;28;20641;-82
2024/01/09 01:41:41;;;;;;;1.60;1.50;;;-0.40;99.90;;;;;;5041437;28;20060;-82
2024/01/09 01:44:17;;;;;;;1.60;1.50;;;-0.30;99.90;;;;;;5044207;28;20056;-82
2024/01/09 01:46:45;;;;;;;1.80;1.70;;;-0.30;99.90;;;;;;5039155;28;20067;-83
2024/01/09 01:49:12;;;;;;;1.60;1.50;;;-0.50;99.90;;;;;;5044272;28;20048;-82
2024/01/09 01:51:38;;;;;;;1.60;1.50;;;-0.40;99.90;;;;;;5046762;28;20051;-82
2024/01/09 01:54:06;;;;;;;1.70;1.60;;;-0.40;99.90;;;;;;5042547;28;20131;-81
2024/01/09 01:56:32;;;;;;;1.70;1.60;;;-0.40;99.90;;;;;;5043405;28;20052;-82
2024/01/09 01:58:58;;;;;;;1.70;1.60;;;-0.50;99.90;;;;;;5045327;28;20429;-82
2024/01/09 02:01:25;;;;;;;1.60;1.50;;;-0.50;99.90;;;;;;5044790;28;20044;-81
2024/01/09 02:03:51;;;;;;;1.60;1.50;;;-0.40;57.40;;;;;;5044434;28;20701;-81
2024/01/09 02:06:18;;;;;;;1.67;1.58;;;-0.50;1.00;;;;;;5044881;28;20040;-81
2024/01/09 02:08:44;;;;;;;1.60;1.50;;;-0.40;1.00;;;;;;5045782;28;20135;-80
2024/01/09 02:11:10;;;;;;;1.70;1.60;;;-0.50;2.80;;;;;;5043269;28;20048;-81
2024/01/09 02:13:36;;;;;;;1.70;1.60;;;-0.50;1.00;;;;;;5041023;28;20053;-81
2024/01/09 02:16:03;;;;;;;1.60;1.50;;;-0.50;1.00;;;;;;5040483;28;20049;-81
2024/01/09 02:18:28;;;;;;;1.60;1.50;;;-0.50;1.00;;;;;;5023819;28;20052;-80
2024/01/09 02:20:54;;;;;;;1.60;1.50;;;-0.50;1.00;;;;;;5023088;28;20040;-82
2024/01/09 02:23:20;;;;;;;1.70;1.60;;;-0.60;1.00;;;;;;5041502;28;20041;-81
2024/01/09 02:25:46;;;;;;;1.60;1.50;;;-0.60;1.00;;;;;;5048069;28;20150;-81
2024/01/09 02:28:22;;;;;;;1.73;1.63;;;-0.50;1.00;;;;;;5047087;28;20130;-81
2024/01/09 02:30:48;;;;;;;1.95;1.85;;;-0.50;1.00;;;;;;5046725;28;20050;-81
2024/01/09 02:33:14;;;;;;;1.90;1.80;;;-0.60;1.00;;;;;;5045899;28;20044;-80
2024/01/09 02:35:40;;;;;;;2.05;1.95;;;-0.60;1.00;;;;;;5031024;28;20477;-80
2024/01/09 02:38:06;;;;;;;1.70;1.60;;;-0.50;1.00;;;;;;5056252;28;20056;-79
2024/01/09 02:40:32;;;;;;;1.70;1.60;;;-0.70;1.00;;;;;;5037506;28;20486;-80
2024/01/09 02:42:58;;;;;;;1.90;1.80;;;-0.60;1.00;;;;;;5044086;28;20533;-81
2024/01/09 02:45:23;;;;;;;1.80;1.70;;;-0.60;1.00;;;;;;5043733;28;20048;-80
2024/01/09 02:47:49;;;;;;;1.70;1.60;;;-0.60;1.00;;;;;;5034351;28;20041;-80
2024/01/09 02:50:15;;;;;;;1.80;1.70;;;-0.70;1.00;;;;;;5045247;28;20106;-80
2024/01/09 02:52:40;;;;;;;1.80;1.70;;;-0.70;1.00;;;;;;5038463;28;20783;-80
2024/01/09 02:55:06;;;;;;;2.00;1.90;;;-0.70;1.00;;;;;;5044138;28;20048;-79
2024/01/09 02:57:32;;;;;;;1.80;1.70;;;-0.80;1.00;;;;;;5043570;28;20056;-79
2024/01/09 02:59:57;;;;;;;1.80;1.70;;;-0.90;1.00;;;;;;5046358;28;20383;-79
2024/01/09 03:02:23;;;;;;;1.80;1.70;;;-0.80;1.00;;;;;;5046597;28;20136;-79
2024/01/09 03:04:49;;;;;;;1.80;1.70;;;-0.90;1.00;;;;;;5037230;28;20083;-79
2024/01/09 03:07:14;;;;;;;2.00;1.90;;;-0.90;1.00;;;;;;5039094;28;20048;-78
2024/01/09 03:09:43;;;;;;;1.90;1.80;;;-0.80;1.00;;;;;;5061030;28;20056;-79
2024/01/09 03:12:08;;;;;;;1.80;1.70;;;-0.90;1.00;;;;;;5048857;28;20049;-80
2024/01/09 03:14:37;;;;;;;1.92;1.83;;;-1.00;1.00;;;;;;5050898;28;20516;-79
2024/01/09 03:17:04;;;;;;;1.95;1.85;;;-1.00;1.00;;;;;;5046697;28;20040;-79
2024/01/09 03:19:31;;;;;;;1.85;1.75;;;-0.90;1.00;;;;;;5048255;28;20044;-79
2024/01/09 03:21:56;;;;;;;1.73;1.63;;;-0.90;1.00;;;;;;5052576;28;20453;-78
2024/01/09 03:24:22;;;;;;;1.85;1.75;;;-1.00;1.00;;;;;;5046536;28;20115;-79
2024/01/09 03:26:47;;;;;;;1.90;1.80;;;-1.00;1.00;;;;;;5051879;28;20127;-78
2024/01/09 03:29:17;;;;;;;1.90;1.80;;;-1.00;1.00;;;;;;5068113;28;20045;-78
2024/01/09 03:31:46;;;;;;;2.20;2.10;;;-1.10;1.00;;;;;;5067383;28;20055;-79
2024/01/09 03:34:11;;;;;;;2.00;1.90;;;-1.10;1.00;;;;;;5048682;28;20401;-78
2024/01/09 03:36:40;;;;;;;2.03;1.92;;;-1.00;1.00;;;;;;5046436;28;20049;-78
2024/01/09 03:39:08;;;;;;;1.90;1.80;;;-1.00;1.00;;;;;;5050582;28;20630;-78
2024/01/09 03:41:34;;;;;;;2.13;2.03;;;-1.00;1.00;;;;;;5068652;28;20059;-77
2024/01/09 03:43:59;;;;;;;2.10;2.00;;;-1.00;1.00;;;;;;5067118;28;20044;-78
2024/01/09 03:46:25;;;;;;;2.00;1.90;;;-1.00;1.00;;;;;;5049136;28;20167;-77
2024/01/09 03:48:51;;;;;;;2.00;1.90;;;-1.00;1.00;;;;;;5049983;28;20410;-77
2024/01/09 03:51:16;;;;;;;2.10;2.00;;;-1.00;1.00;;;;;;5066330;28;20036;-77
2024/01/09 03:53:42;;;;;;;2.00;1.90;;;-1.00;1.00;;;;;;5064424;28;20055;-77
2024/01/09 03:56:08;;;;;;;2.00;1.90;;;-1.00;1.00;;;;;;5047350;28;20501;-78
2024/01/09 03:58:33;;;;;;;2.22;2.13;;;-0.90;1.00;;;;;;5050188;28;20052;-78
2024/01/09 04:00:59;;;;;;;2.30;2.20;;;-1.00;1.00;;;;;;5046485;28;20150;-78
2024/01/09 04:03:26;;;;;;;2.20;2.10;;;-1.00;1.00;;;;;;5033553;28;20059;-78
2024/01/09 04:05:52;;;;;;;1.90;1.80;;;-1.10;1.00;;;;;;5047097;28;20040;-77
2024/01/09 04:08:17;;;;;;;2.00;1.90;;;-1.10;1.00;;;;;;5045962;28;20672;-78
2024/01/09 04:10:43;;;;;;;2.10;2.00;;;-1.10;1.00;;;;;;5065560;28;20071;-78
2024/01/09 04:13:09;;;;;;;2.40;2.30;;;-1.10;1.00;;;;;;5048846;28;20047;-78
2024/01/09 04:15:34;;;;;;;2.40;2.30;;;-1.20;1.00;;;;;;5045839;28;20103;-77
2024/01/09 04:18:01;;;;;;;2.17;2.08;;;-1.20;1.00;;;;;;5065551;28;20045;-77
2024/01/09 04:20:27;;;;;;;2.10;2.00;;;-1.30;1.00;;;;;;5064693;28;20108;-77
2024/01/09 04:22:53;;;;;;;2.10;2.00;;;-1.30;1.00;;;;;;5049704;28;20048;-77
2024/01/09 04:25:18;;;;;;;2.20;2.10;;;-1.30;1.00;;;;;;5047814;28;20051;-77
2024/01/09 04:27:44;;;;;;;2.20;2.10;;;-1.30;1.00;;;;;;5045684;28;20163;-77
2024/01/09 04:30:11;;;;;;;2.10;2.00;;;-1.40;1.00;;;;;;5051851;28;20044;-76
2024/01/09 04:32:37;;;;;;;2.10;2.00;;;-1.30;1.00;;;;;;5046373;28;20099;-77
2024/01/09 04:35:03;;;;;;;2.40;2.30;;;-1.40;1.00;;;;;;5068132;28;20033;-77
2024/01/09 04:37:28;;;;;;;2.03;1.92;;;-1.40;1.00;;;;;;5047290;28;20045;-76
2024/01/09 04:39:54;;;;;;;2.08;1.98;;;-1.40;99.90;;;;;;5046687;28;20052;-77
2024/01/09 04:42:20;;;;;;;2.13;2.03;;;-1.40;99.90;;;;;;5045297;28;20052;-76
2024/01/09 04:44:45;;;;;;;2.20;2.10;;;-1.40;99.90;;;;;;5031119;28;20195;-77
2024/01/09 04:47:15;;;;;;;2.20;2.10;;;-1.40;1.00;;;;;;5064578;28;20047;-76
2024/01/09 04:49:43;;;;;;;2.40;2.30;;;-1.30;99.90;;;;;;5045217;28;20060;-76
2024/01/09 04:52:09;;;;;;;2.20;2.10;;;-1.30;99.90;;;;;;5047571;28;20086;-76
2024/01/09 04:54:34;;;;;;;2.00;1.90;;;-1.40;99.90;;;;;;5045391;28;20118;-76
2024/01/09 04:57:00;;;;;;;2.30;2.20;;;-1.30;99.90;;;;;;5045819;28;20056;-76
2024/01/09 04:59:25;;;;;;;2.20;2.10;;;-1.50;99.90;;;;;;5065184;28;20051;-75
2024/01/09 05:01:51;;;;;;;2.20;2.10;;;-1.40;99.90;;;;;;5047653;28;20048;-75
2024/01/09 05:04:17;;;;;;;2.30;2.20;;;-1.40;99.90;;;;;;5046452;28;20052;-76
2024/01/09 05:06:43;;;;;;;2.28;2.17;;;-1.40;99.90;;;;;;5045366;28;20040;-75
2024/01/09 05:09:09;;;;;;;2.13;2.03;;;-1.40;99.90;;;;;;5063293;28;20040;-75
2024/01/09 05:11:35;;;;;;;2.20;2.10;;;-1.40;99.90;;;;;;5041642;28;20048;-76
2024/01/09 05:14:01;;;;;;;2.03;1.92;;;-1.40;99.90;;;;;;5057874;28;20560;-75
2024/01/09 05:16:27;;;;;;;2.20;2.10;;;-1.40;99.90;;;;;;5045791;28;20055;-75
2024/01/09 05:18:53;;;;;;;2.17;2.08;;;-1.50;99.90;;;;;;5043352;28;20071;-75
2024/01/09 05:21:19;;;;;;;2.10;2.00;;;-1.40;99.90;;;;;;5046333;28;20044;-76
2024/01/09 05:23:45;;;;;;;2.25;2.15;;;-1.50;99.90;;;;;;5063673;28;20048;-75
2024/01/09 05:26:20;;;;;;;2.30;2.20;;;-1.50;99.90;;;;;;5062379;28;20079;-75
2024/01/09 05:28:45;;;;;;;2.38;2.28;;;-1.60;99.90;;;;;;5045135;28;20135;-75
2024/01/09 05:31:11;;;;;;;2.28;2.17;;;-1.40;99.90;;;;;;5048542;28;20182;-75
2024/01/09 05:33:37;;;;;;;2.33;2.22;;;-1.60;99.90;;;;;;5046576;28;20049;-75
2024/01/09 05:36:03;;;;;;;2.40;2.30;;;-1.60;99.90;;;;;;5044830;28;20055;-75
2024/01/09 05:38:29;;;;;;;2.50;2.40;;;-1.60;99.90;;;;;;5042392;28;20098;-75
2024/01/09 05:40:54;;;;;;;2.38;2.28;;;-1.70;99.90;;;;;;5043417;28;20315;-75
2024/01/09 05:43:20;;;;;;;2.10;2.00;;;-1.70;99.90;;;;;;5045949;28;20430;-75
2024/01/09 05:45:46;;;;;;;2.15;2.05;;;-1.70;99.90;;;;;;5043052;28;20401;-75
2024/01/09 05:48:11;;;;;;;2.22;2.13;;;-1.60;99.90;;;;;;5061813;28;20139;-75
2024/01/09 05:50:37;;;;;;;2.28;2.17;;;-1.70;99.90;;;;;;5062984;28;20131;-75
2024/01/09 05:53:03;;;;;;;2.20;2.10;;;-1.70;99.90;;;;;;5060932;28;20045;-75
2024/01/09 05:55:28;;;;;;;2.40;2.30;;;-1.70;99.90;;;;;;5044465;28;20052;-75
2024/01/09 05:57:54;;;;;;;2.08;1.98;;;-1.70;99.90;;;;;;5045465;28;20048;-75
2024/01/09 06:00:20;;;;;;;2.30;2.20;;;-1.70;99.90;;;;;;5061910;28;20055;-75
2024/01/09 06:02:45;;;;;;;2.20;2.10;;;-1.80;99.90;;;;;;5040849;28;20186;-75
2024/01/09 06:05:11;;;;;;;2.30;2.20;;;-1.80;99.90;;;;;;5060551;28;20120;-75
2024/01/09 06:07:37;;;;;;;2.13;2.03;;;-1.80;99.90;;;;;;5045679;28;20048;-75
2024/01/09 06:10:03;;;;;;;2.20;2.10;;;-1.80;99.90;;;;;;5041977;28;20052;-75
2024/01/09 06:12:29;;;;;;;2.45;2.35;;;-1.80;99.90;;;;;;5045877;28;20053;-75
2024/01/09 06:14:55;;;;;;;2.40;2.30;;;-1.80;99.90;;;;;;5043416;28;20044;-75
2024/01/09 06:17:21;;;;;;;2.20;2.10;;;-1.80;99.90;;;;;;5063687;28;20044;-75
2024/01/09 06:19:47;;;;;;;2.17;2.08;;;-1.90;99.90;;;;;;5046096;28;20044;-75
2024/01/09 06:22:13;;;;;;;2.20;2.10;;;-1.80;99.90;;;;;;5043989;28;20086;-75
2024/01/09 06:24:38;;;;;;;2.10;2.00;;;-1.80;99.90;;;;;;5064088;28;20547;-75
2024/01/09 06:27:04;;;;;;;2.20;2.10;;;-1.80;99.90;;;;;;5046264;28;20102;-75
2024/01/09 06:29:30;;;;;;;2.20;2.10;;;-1.80;99.90;;;;;;5060930;28;20676;-75
2024/01/09 06:31:55;;;;;;;2.35;2.25;;;-1.90;99.90;;;;;;5045154;28;20521;-75
2024/01/09 06:34:21;;;;;;;2.17;2.08;;;-1.90;99.90;;;;;;5046948;28;20406;-75
2024/01/09 06:36:47;;;;;;;2.25;2.15;;;-1.80;99.90;;;;;;5060423;28;20143;-74
2024/01/09 06:39:13;;;;;;;2.13;2.03;;;-1.90;99.90;;;;;;5047556;28;20059;-75
2024/01/09 06:41:39;;;;;;;2.20;2.10;;;-1.90;99.90;;;;;;5043093;28;20191;-75
2024/01/09 06:44:04;;;;;;;2.10;2.00;;;-2.00;99.90;;;;;;5043992;28;20052;-75
2024/01/09 06:46:30;;;;;;;2.30;2.20;;;-2.00;99.90;;;;;;5061555;28;20066;-75
2024/01/09 06:48:56;;;;;;;2.40;2.30;;;-1.90;99.90;;;;;;5041898;28;20513;-75
2024/01/09 06:51:21;;;;;;;2.13;2.03;;;-2.00;99.90;;;;;;5061174;28;20106;-75
2024/01/09 06:53:47;;;;;;;2.13;2.03;;;-2.00;99.90;;;;;;5042762;28;20052;-75
2024/01/09 06:56:13;;;;;;;2.40;2.30;;;-2.00;99.90;;;;;;5042920;28;20045;-75
2024/01/09 06:58:39;;;;;;;2.40;2.30;;;-2.00;99.90;;;;;;5061426;28;20044;-75
2024/01/09 07:01:06;;;;;;;2.38;2.28;;;-2.10;99.90;;;;;;5046942;28;20084;-75
2024/01/09 07:03:32;;;;;;;2.17;2.08;;;-2.10;99.90;;;;;;5062687;28;20048;-75
2024/01/09 07:05:58;;;;;;;2.20;2.10;;;-2.10;99.90;;;;;;5047878;28;20698;-75
2024/01/09 07:08:24;;;;;;;2.08;1.98;;;-2.10;99.90;;;;;;5060384;28;20062;-75
2024/01/09 07:10:49;;;;;;;2.30;2.20;;;-2.10;99.90;;;;;;5047675;28;20048;-75
2024/01/09 07:13:15;;;;;;;2.22;2.13;;;-2.20;99.90;;;;;;5070000;28;20076;-75
2024/01/09 07:15:41;;;;;;;2.20;2.10;;;-2.20;99.90;;;;;;5051261;28;20056;-75
2024/01/09 07:18:07;;;;;;;2.10;2.00;;;-2.10;99.90;;;;;;5050050;28;20048;-75
2024/01/09 07:20:33;;;;;;;2.30;2.20;;;-2.20;99.90;;;;;;5068039;28;20487;-75
2024/01/09 07:22:58;;;;;;;2.10;2.00;;;-2.20;99.90;;;;;;5050260;28;20044;-75
2024/01/09 07:25:24;;;;;;;2.30;2.20;;;-2.20;99.90;;;;;;5049388;28;20041;-75
2024/01/09 07:27:50;;;;;;;2.20;2.10;;;-2.20;99.90;;;;;;5065256;28;20036;-75
2024/01/09 07:30:18;;;;;;;2.15;2.05;;;-2.10;99.90;;;;;;5048634;28;20159;-75
2024/01/09 07:32:44;;;;;;;2.20;2.10;;;-2.20;99.90;;;;;;5050404;28;20482;-75
2024/01/09 07:35:09;;;;;;;2.25;2.15;;;-2.20;99.90;;;;;;5049279;28;20048;-75
2024/01/09 07:37:35;;;;;;;2.20;2.10;;;-2.10;99.90;;;;;;5044787;28;20064;-75
2024/01/09 07:40:01;;;;;;;2.30;2.20;;;-2.10;99.90;;;;;;5065431;28;20044;-76
2024/01/09 07:42:26;;;;;;;2.28;2.17;;;-2.20;99.90;;;;;;5066283;28;20960;-76
2024/01/09 07:44:52;;;;;;;2.25;2.15;;;-2.20;99.90;;;;;;5065347;28;20040;-75
2024/01/09 07:47:18;;;;;;;2.40;2.30;;;-2.10;99.90;;;;;;5048141;28;20127;-74
2024/01/09 07:49:43;;;;;;;2.35;2.25;;;-2.20;99.90;;;;;;5047867;28;20140;-76
2024/01/09 07:52:09;;;;;;;2.30;2.20;;;-2.20;99.90;;;;;;5046947;28;20592;-76
2024/01/09 07:54:35;;;;;;;2.30;2.20;;;-2.10;99.90;;;;;;5066215;28;21114;-76
2024/01/09 07:57:01;;;;;;;2.30;2.20;;;-2.10;99.90;;;;;;5049110;28;20080;-76
2024/01/09 07:59:26;;;;;;;2.22;2.13;;;-2.20;99.90;;;;;;5066492;28;20056;-76
2024/01/09 08:01:54;;;;;;;2.33;2.22;;;-2.00;99.90;;;;;;5045041;28;20095;-76
2024/01/09 08:04:22;;;;;;;2.20;2.10;;;-2.10;99.90;;;;;;5048407;28;20140;-76
2024/01/09 08:06:50;;;;;;;2.30;2.20;;;-2.10;99.90;;;;;;5049946;28;20561;-76
2024/01/09 08:09:19;;;;;;;2.30;2.20;;;-2.10;99.90;;;;;;5066951;28;20083;-76
2024/01/09 08:11:46;;;;;;;2.38;2.28;;;-2.00;99.90;;;;;;5045546;28;20048;-76
2024/01/09 08:14:13;;;;;;;2.40;2.30;;;-2.00;99.90;;;;;;5047589;28;20131;-77
2024/01/09 08:16:42;;;;;;;2.33;2.22;;;-1.90;99.90;;;;;;5066951;28;20072;-76
2024/01/09 08:19:08;;;;;;;2.10;2.00;;;-1.70;99.90;;;;;;5051663;28;20044;-77
2024/01/09 08:21:35;;;;;;;2.15;2.05;;;-1.80;99.90;;;;;;5044145;28;20040;-76
2024/01/09 08:24:01;;;;;;;2.10;2.00;;;-1.70;99.90;;;;;;5047783;28;20039;-76
2024/01/09 08:26:27;;;;;;;2.15;2.05;;;-1.60;99.90;;;;;;5047620;28;20048;-77
2024/01/09 08:28:52;;;;;;;2.00;1.90;;;-1.70;99.90;;;;;;5045042;28;20062;-76
2024/01/09 08:31:18;;;;;;;2.10;2.00;;;-1.60;99.90;;;;;;5047620;28;20048;-76
2024/01/09 08:33:44;;;;;;;1.98;1.88;;;-1.50;99.90;;;;;;5047109;28;20398;-77
2024/01/09 08:36:10;;;;;;;1.95;1.85;;;-1.60;99.90;;;;;;5047228;28;20119;-76
2024/01/09 08:38:36;;;;;;;1.95;1.85;;;-1.40;99.90;;;;;;5047605;28;20056;-76
2024/01/09 08:41:02;;;;;;;2.00;1.90;;;-1.40;99.30;;;;;;5046559;28;20064;-76
2024/01/09 08:43:28;;;;;;;2.30;2.20;;;-1.30;99.90;;;;;;5049807;28;20406;-77
2024/01/09 08:45:54;;;;;;;2.00;1.90;;;-1.20;99.90;;;;;;5047539;28;21354;-76
2024/01/09 08:48:20;;;;;;;1.90;1.80;;;-1.20;97.80;;;;;;5046065;28;20052;-76
2024/01/09 08:50:46;;;;;;;2.20;2.10;;;-1.20;99.90;;;;;;5046115;28;20052;-76
2024/01/09 08:53:11;;;;;;;1.90;1.80;;;-1.20;86.10;;;;;;5047661;28;20540;-76
2024/01/09 08:55:37;;;;;;;2.00;1.90;;;-1.10;73.70;;;;;;5065330;28;20421;-76
2024/01/09 08:58:03;;;;;;;1.90;1.80;;;-1.10;65.50;;;;;;5051321;28;20148;-76
2024/01/09 09:00:29;;;;;;;1.90;1.80;;;-1.10;53.30;;;;;;5059675;28;20098;-76
2024/01/09 09:02:55;;;;;;;1.80;1.70;;;-1.00;60.70;;;;;;5063031;28;20510;-76
2024/01/09 09:05:20;;;;;;;1.85;1.75;;;-1.00;48.50;;;;;;5040624;28;20041;-76
2024/01/09 09:07:47;;;;;;;1.90;1.80;;;-1.00;48.70;;;;;;5049490;28;20052;-75
2024/01/09 09:10:13;;;;;;;1.90;1.80;;;-0.90;43.30;;;;;;5045728;28;20051;-76
2024/01/09 09:12:38;;;;;;;1.90;1.80;;;-0.90;42.80;;;;;;5049229;28;20047;-76
2024/01/09 09:15:04;;;;;;;1.90;1.80;;;-0.90;29.80;;;;;;5045878;28;20055;-74
2024/01/09 09:17:33;;;;;;;2.00;1.90;;;-0.70;48.50;;;;;;5066542;28;20056;-76
2024/01/09 09:19:59;;;;;;;1.90;1.80;;;-0.80;37.40;;;;;;5046781;28;20056;-76
2024/01/09 09:22:25;;;;;;;2.00;1.90;;;-0.70;33.50;;;;;;5048851;28;20044;-76
2024/01/09 09:24:55;;;;;;;1.80;1.70;;;-0.70;24.00;;;;;;5047942;28;20071;-76
2024/01/09 09:27:21;;;;;;;1.83;1.73;;;-0.60;25.10;;;;;;5046635;28;20105;-76
2024/01/09 09:29:47;;;;;;;1.70;1.60;;;-0.60;20.30;;;;;;5045919;28;20054;-75
2024/01/09 09:32:12;;;;;;;1.60;1.50;;;-0.60;29.90;;;;;;5045036;28;20417;-76
2024/01/09 09:34:41;;;;;;;1.60;1.50;;;-0.40;28.60;;;;;;5047008;28;20044;-76
2024/01/09 09:37:07;;;;;;;1.50;1.40;;;-0.40;38.10;;;;;;5047319;28;20052;-74
2024/01/09 09:39:34;;;;;;;1.60;1.50;;;-0.40;24.70;;;;;;5047280;28;20044;-75
2024/01/09 09:42:00;;;;;;;1.50;1.40;;;-0.40;37.80;;;;;;5062332;28;20508;-75
2024/01/09 09:44:26;;;;;;;1.55;1.45;;;-0.40;25.10;;;;;;5046441;28;20045;-75
2024/01/09 09:46:52;;;;;;;1.50;1.40;;;-0.30;13.00;;;;;;5043534;28;20052;-75
2024/01/09 09:49:24;;;;;;;1.30;1.30;;;-0.30;12.70;;;;;;5046163;28;20398;-76
2024/01/09 09:51:51;;;;;;;1.40;1.40;;;-0.10;26.60;;;;;;5049435;28;20131;-76
2024/01/09 09:54:19;;;;;;;1.50;1.40;;;-0.20;16.20;;;;;;5046914;28;20458;-76
2024/01/09 09:56:45;;;;;;;1.30;1.30;;;-0.20;1.00;;;;;;5050164;28;20048;-77
2024/01/09 09:59:11;;;;;;;1.30;1.30;;;0.00;3.50;;;;;;5048853;28;20071;-77
2024/01/09 10:01:38;;;;;;;1.30;1.30;;;0.00;4.10;;;;;;5050115;28;20063;-78
2024/01/09 10:04:10;;;;;;;1.30;1.30;;;0.10;2.20;;;;;;5051540;28;20087;-78
2024/01/09 10:06:38;;;;;;;1.20;1.20;;;-0.10;2.90;;;;;;5067229;28;20080;-78
2024/01/09 10:09:10;;;;;;;1.30;1.30;;;0.00;1.00;;;;;;5046877;28;20044;-79
2024/01/09 10:11:35;;;;;;;1.20;1.20;;;0.10;1.00;;;;;;5049504;28;20107;-78
2024/01/09 10:14:01;;;;;;;1.20;1.20;;;0.00;1.00;;;;;;5068146;28;20041;-78
2024/01/09 10:16:27;;;;;;;1.20;1.20;;;0.20;1.00;;;;;;5066352;28;20501;-79
2024/01/09 10:18:56;;;;;;;1.20;1.20;;;0.20;1.00;;;;;;5050418;28;20577;-79
2024/01/09 10:21:22;;;;;;;1.20;1.20;;;0.40;1.00;;;;;;5045268;28;20079;-79
2024/01/09 10:23:48;;;;;;;1.20;1.20;;;0.30;1.00;;;;;;5050479;28;20044;-78
2024/01/09 10:26:14;;;;;;;1.20;1.20;;;0.30;1.00;;;;;;5053238;28;20097;-79
2024/01/09 10:28:41;;;;;;;1.20;1.20;;;0.30;1.00;;;;;;5065748;28;20052;-77
2024/01/09 10:31:07;;;;;;;1.20;1.20;;;0.50;1.00;;;;;;5048822;28;20456;-78
2024/01/09 10:33:37;;;;;;;1.30;1.30;;;0.30;1.00;;;;;;5045712;28;20103;-79
2024/01/09 10:36:03;;;;;;;1.10;1.10;;;0.50;1.00;;;;;;5048762;28;20103;-78
2024/01/09 10:38:29;;;;;;;1.20;1.20;;;0.70;1.00;;;;;;5031576;28;20871;-78
2024/01/09 10:40:57;;;;;;;1.20;1.20;;;0.60;1.00;;;;;;5065634;28;20043;-79
2024/01/09 10:43:25;;;;;;;1.20;1.20;;;0.90;1.00;;;;;;5047195;28;20076;-79
2024/01/09 10:45:52;;;;;;;1.27;1.27;;;0.80;1.00;;;;;;5050877;28;20033;-78
2024/01/09 10:48:20;;;;;;;1.30;1.30;;;0.80;1.00;;;;;;5055573;28;20062;-78
2024/01/09 10:50:50;;;;;;;1.30;1.30;;;0.60;1.00;;;;;;5051892;28;20056;-79
2024/01/09 10:53:16;;;;;;;1.30;1.30;;;0.80;1.00;;;;;;5052917;28;20114;-78
2024/01/09 10:55:43;;;;;;;1.30;1.30;;;0.80;1.00;;;;;;5055246;28;20055;-79
2024/01/09 10:58:10;;;;;;;1.30;1.30;;;0.80;1.00;;;;;;5037013;28;20079;-80
2024/01/09 11:00:38;;;;;;;1.33;1.33;;;0.90;1.00;;;;;;5067791;28;20048;-79
2024/01/09 11:03:04;;;;;;;1.30;1.30;;;1.10;1.00;;;;;;5069933;28;20116;-79
2024/01/09 11:05:29;;;;;;;1.52;1.42;;;1.00;1.00;;;;;;5052219;28;20048;-80
2024/01/09 11:07:58;;;;;;;1.55;1.45;;;0.80;1.00;;;;;;5071449;28;20044;-80
2024/01/09 11:10:25;;;;;;;1.58;1.48;;;0.80;1.00;;;;;;5050819;28;20064;-81
2024/01/09 11:12:53;;;;;;;1.80;1.70;;;1.00;1.00;;;;;;5055102;28;20047;-81
2024/01/09 11:15:21;;;;;;;1.60;1.50;;;1.20;1.00;;;;;;5070432;28;20462;-81
2024/01/09 11:17:53;;;;;;;1.67;1.58;;;1.20;1.00;;;;;;5036609;28;20075;-81
2024/01/09 11:20:19;;;;;;;1.88;1.77;;;1.20;1.00;;;;;;5052254;28;20440;-82
2024/01/09 11:22:45;;;;;;;1.80;1.70;;;1.30;1.00;;;;;;5050960;28;20055;-83
2024/01/09 11:25:17;;;;;;;1.90;1.80;;;1.20;1.00;;;;;;5069605;28;20135;-82
2024/01/09 11:27:46;;;;;;;1.80;1.70;;;1.20;1.00;;;;;;5055418;28;20061;-82
2024/01/09 11:30:14;;;;;;;1.83;1.73;;;1.40;1.00;;;;;;5052785;28;20143;-83
2024/01/09 11:32:40;;;;;;;1.90;1.80;;;1.40;1.00;;;;;;5049858;28;20114;-84
2024/01/09 11:35:14;;;;;;;2.00;1.90;;;1.30;1.00;;;;;;5038481;28;20041;-83
2024/01/09 11:37:42;;;;;;;2.00;1.90;;;1.40;1.00;;;;;;5050501;28;20078;-84
2024/01/09 11:40:10;;;;;;;2.00;1.90;;;1.60;1.00;;;;;;5050681;28;20574;-84
2024/01/09 11:42:42;;;;;;;1.95;1.85;;;1.60;1.00;;;;;;5051193;28;20044;-83
2024/01/09 11:45:08;;;;;;;2.10;2.00;;;1.70;1.00;;;;;;5051526;28;20044;-84
2024/01/09 11:47:40;;;;;;;2.33;2.22;;;1.70;1.00;;;;;;5050228;28;20063;-82
2024/01/09 11:50:07;;;;;;;2.22;2.13;;;1.50;1.00;;;;;;5071176;28;20037;-82
2024/01/09 11:52:34;;;;;;;2.20;2.10;;;1.80;1.00;;;;;;5069282;28;20483;-81
2024/01/09 11:54:59;;;;;;;2.20;2.10;;;1.80;1.00;;;;;;5053573;28;20052;-83
2024/01/09 11:57:25;;;;;;;2.00;1.90;;;1.80;1.00;;;;;;5054949;28;20066;-83
2024/01/09 11:59:51;;;;;;;2.00;1.90;;;1.60;1.00;;;;;;5049773;28;20078;-83
2024/01/09 12:02:18;;;;;;;2.08;1.98;;;1.80;1.00;;;;;;5034497;28;20051;-84
2024/01/09 12:04:44;;;;;;;2.03;1.92;;;1.90;1.00;;;;;;5049679;28;20051;-84
2024/01/09 12:07:12;;;;;;;1.88;1.77;;;2.10;1.00;;;;;;5050148;28;20048;-83
2024/01/09 12:09:38;;;;;;;1.80;1.70;;;1.90;1.00;;;;;;5052357;28;20064;-82
2024/01/09 12:12:10;;;;;;;2.00;1.90;;;1.90;1.00;;;;;;5051745;28;20041;-83
2024/01/09 12:14:36;;;;;;;1.77;1.67;;;2.10;1.00;;;;;;5049704;28;20178;-82
2024/01/09 12:17:23;;;;;;;1.83;1.73;;;2.00;1.00;;;;;;5051708;28;20048;-83
2024/01/09 12:19:51;;;;;;;1.80;1.70;;;2.00;1.00;;;;;;5051705;28;20060;-83
2024/01/09 12:22:18;;;;;;;1.80;1.70;;;2.20;1.00;;;;;;5032334;28;20045;-84
2024/01/09 12:24:44;;;;;;;1.88;1.77;;;2.10;1.00;;;;;;5049414;28;20123;-84
2024/01/09 12:27:10;;;;;;;1.75;1.65;;;2.30;1.00;;;;;;5035183;28;20054;-82
2024/01/09 12:29:36;;;;;;;1.83;1.73;;;2.20;1.00;;;;;;5052062;28;21401;-83
2024/01/09 12:32:03;;;;;;;1.70;1.60;;;2.10;1.00;;;;;;5050842;28;20048;-84
2024/01/09 12:34:29;;;;;;;1.70;1.60;;;2.30;1.00;;;;;;5050404;28;20070;-84
2024/01/09 12:36:55;;;;;;;1.90;1.80;;;2.10;1.00;;;;;;5050702;28;20045;-83
2024/01/09 12:39:23;;;;;;;1.60;1.50;;;2.40;1.00;;;;;;5050559;28;20055;-84
2024/01/09 12:41:53;;;;;;;1.60;1.50;;;2.60;1.00;;;;;;5062218;28;20110;-83
2024/01/09 12:44:20;;;;;;;1.40;1.40;;;2.60;1.00;;;;;;5051364;28;20133;-85
2024/01/09 12:46:47;;;;;;;1.20;1.20;;;2.60;1.00;;;;;;5069816;28;20075;-86
2024/01/09 12:49:13;;;;;;;1.20;1.20;;;2.60;1.00;;;;;;5037344;28;20040;-85
2024/01/09 12:51:39;;;;;;;1.20;1.20;;;2.70;1.00;;;;;;5050410;28;20045;-85